Time;durP1;ratioP1;P1;durP2;ratioP2;P2;SDS_P1;SDS_P2;PMS_P1;PMS_P2;Temp;Humidity;BMP_temperature;BMP_pressure;BME280_temperature;BME280_humidity;BME280_pressure;Samples;Min_cycle;Max_cycle;Signal;HPM_P1;HPM_P2
2021/07/07 00:00:42;;;;;;;7.72;6.80;;;;;15.90;101283.00;;;;5090646;28;20108;-75
2021/07/07 00:03:09;;;;;;;15.65;7.68;;;;;15.80;101300.00;;;;5090025;28;20543;-75
2021/07/07 00:05:35;;;;;;;8.50;7.28;;;;;15.40;101295.00;;;;5089614;28;20058;-75
2021/07/07 00:08:02;;;;;;;10.00;6.68;;;;;15.60;101308.00;;;;5089750;28;20503;-76
2021/07/07 00:10:33;;;;;;;8.93;6.72;;;;;15.60;101284.00;;;;5089643;28;20032;-75
2021/07/07 00:13:02;;;;;;;10.68;7.20;;;;;15.60;101307.00;;;;5090021;28;20055;-74
2021/07/07 00:15:31;;;;;;;10.07;8.38;;;;;15.30;101300.00;;;;5089385;28;20072;-75
2021/07/07 00:18:02;;;;;;;13.70;7.88;;;;;15.40;101301.00;;;;5089534;28;20031;-76
2021/07/07 00:20:36;;;;;;;16.87;7.70;;;;;15.60;101320.00;;;;5099976;28;20395;-75
2021/07/07 00:23:03;;;;;;;10.02;7.60;;;;;15.80;101318.00;;;;5099453;28;20070;-75
2021/07/07 00:25:30;;;;;;;9.20;8.05;;;;;15.70;101315.00;;;;5098215;28;20034;-74
2021/07/07 00:27:57;;;;;;;11.38;7.57;;;;;15.70;101310.00;;;;5099713;28;20016;-75
2021/07/07 00:30:24;;;;;;;9.68;7.55;;;;;15.40;101335.00;;;;5099900;28;20027;-75
2021/07/07 00:32:51;;;;;;;9.43;7.80;;;;;15.50;101330.00;;;;5099437;28;20420;-74
2021/07/07 00:35:17;;;;;;;10.02;7.60;;;;;15.50;101337.00;;;;5099056;28;20077;-75
2021/07/07 00:37:44;;;;;;;12.43;8.40;;;;;15.40;101329.00;;;;5098189;28;20110;-75
2021/07/07 00:40:11;;;;;;;11.10;8.07;;;;;15.20;101317.00;;;;5099837;28;20024;-75
2021/07/07 00:42:38;;;;;;;15.23;11.95;;;;;15.20;101325.00;;;;5080054;28;20040;-74
2021/07/07 00:45:05;;;;;;;13.13;8.77;;;;;15.00;101329.00;;;;5097809;28;20486;-75
2021/07/07 00:47:32;;;;;;;9.85;8.85;;;;;14.80;101332.00;;;;5098232;28;20028;-76
2021/07/07 00:49:58;;;;;;;18.30;9.77;;;;;14.50;101328.00;;;;5098746;28;20104;-75
2021/07/07 00:52:25;;;;;;;15.60;9.20;;;;;14.30;101323.00;;;;5107714;28;20414;-76
2021/07/07 00:54:52;;;;;;;13.63;8.90;;;;;14.30;101309.00;;;;5108807;28;20024;-75
2021/07/07 00:57:19;;;;;;;11.60;8.80;;;;;14.20;101335.00;;;;5109592;28;20027;-74
2021/07/07 00:59:46;;;;;;;15.02;8.75;;;;;14.30;101328.00;;;;5109055;28;20038;-75
2021/07/07 01:02:18;;;;;;;10.57;9.10;;;;;14.30;101328.00;;;;5108862;28;20047;-75
2021/07/07 01:04:44;;;;;;;11.18;8.57;;;;;14.50;101332.00;;;;5108840;28;20030;-75
2021/07/07 01:07:11;;;;;;;10.80;8.35;;;;;14.60;101326.00;;;;5108906;28;20031;-75
2021/07/07 01:09:37;;;;;;;11.98;8.57;;;;;14.40;101328.00;;;;5109368;28;20077;-75
2021/07/07 01:12:04;;;;;;;13.30;8.07;;;;;14.70;101324.00;;;;5108914;28;20468;-75
2021/07/07 01:14:31;;;;;;;9.10;8.20;;;;;15.20;101331.00;;;;5109576;28;20379;-75
2021/07/07 01:16:57;;;;;;;11.77;8.10;;;;;15.20;101313.00;;;;5109387;28;20174;-75
2021/07/07 01:19:24;;;;;;;10.35;9.07;;;;;15.00;101332.00;;;;5109126;28;20039;-75
2021/07/07 01:21:51;;;;;;;13.23;8.15;;;;;14.90;101308.00;;;;5108822;28;20103;-75
2021/07/07 01:24:20;;;;;;;10.57;9.13;;;;;14.90;101318.00;;;;5090798;28;20035;-75
2021/07/07 01:26:47;;;;;;;13.05;9.00;;;;;14.70;101339.00;;;;5108697;28;20024;-76
2021/07/07 01:29:14;;;;;;;9.55;7.68;;;;;14.70;101336.00;;;;5108936;28;20027;-75
2021/07/07 01:31:45;;;;;;;11.32;8.63;;;;;14.80;101345.00;;;;5108916;28;20031;-75
2021/07/07 01:34:12;;;;;;;13.35;8.93;;;;;14.90;101349.00;;;;5108451;28;20023;-75
2021/07/07 01:36:39;;;;;;;15.05;9.27;;;;;14.80;101326.00;;;;5108828;28;20039;-75
2021/07/07 01:39:08;;;;;;;8.68;7.88;;;;;14.90;101361.00;;;;5108994;28;20040;-75
2021/07/07 01:41:35;;;;;;;10.68;7.85;;;;;14.90;101349.00;;;;5108385;28;20030;-75
2021/07/07 01:44:02;;;;;;;14.57;8.00;;;;;14.90;101343.00;;;;5114021;28;20047;-75
2021/07/07 01:46:29;;;;;;;11.95;8.13;;;;;15.00;101339.00;;;;5132740;28;20037;-75
2021/07/07 01:48:56;;;;;;;9.23;8.25;;;;;14.90;101371.00;;;;5132593;28;20023;-76
2021/07/07 01:51:22;;;;;;;10.88;8.45;;;;;15.10;101335.00;;;;5108929;28;20036;-75
2021/07/07 01:53:49;;;;;;;10.25;9.23;;;;;14.70;101364.00;;;;5108648;28;20455;-75
2021/07/07 01:56:16;;;;;;;13.88;9.52;;;;;14.40;101361.00;;;;5089976;28;20119;-75
2021/07/07 01:58:42;;;;;;;16.60;8.60;;;;;14.10;101358.00;;;;5108201;28;20448;-75
2021/07/07 02:01:09;;;;;;;18.80;13.57;;;;;13.90;101347.00;;;;5108250;28;20051;-75
2021/07/07 02:03:36;;;;;;;18.27;14.35;;;;;13.90;101362.00;;;;5108909;28;20035;-75
2021/07/07 02:06:03;;;;;;;10.50;8.75;;;;;13.90;101335.00;;;;5108065;28;20487;-75
2021/07/07 02:08:30;;;;;;;14.90;9.30;;;;;14.10;101350.00;;;;5108461;28;20395;-75
2021/07/07 02:10:56;;;;;;;12.60;8.80;;;;;14.30;101364.00;;;;5108320;28;20042;-75
2021/07/07 02:13:23;;;;;;;15.25;8.70;;;;;14.40;101360.00;;;;5108194;28;20031;-74
2021/07/07 02:15:50;;;;;;;10.27;8.82;;;;;14.30;101341.00;;;;5107313;28;20027;-75
2021/07/07 02:18:16;;;;;;;13.05;8.68;;;;;14.10;101332.00;;;;5107366;28;20030;-76
2021/07/07 02:20:43;;;;;;;10.90;9.05;;;;;14.00;101345.00;;;;5107583;28;20043;-75
2021/07/07 02:23:11;;;;;;;10.00;8.60;;;;;13.90;101343.00;;;;5107891;28;20448;-75
2021/07/07 02:25:39;;;;;;;11.32;9.13;;;;;13.80;101335.00;;;;5107600;28;20081;-75
2021/07/07 02:28:07;;;;;;;9.70;8.75;;;;;13.80;101357.00;;;;5108002;28;20024;-77
2021/07/07 02:30:36;;;;;;;12.38;9.70;;;;;13.70;101301.00;;;;5107855;28;20051;-76
2021/07/07 02:33:05;;;;;;;14.25;9.07;;;;;13.80;101327.00;;;;5107555;28;20043;-75
2021/07/07 02:35:34;;;;;;;10.15;9.13;;;;;13.80;101356.00;;;;5107361;28;20039;-74
2021/07/07 02:38:04;;;;;;;10.63;9.13;;;;;13.90;101344.00;;;;5107201;28;20433;-74
2021/07/07 02:40:33;;;;;;;9.18;8.27;;;;;13.80;101352.00;;;;5107372;28;20106;-75
2021/07/07 02:43:00;;;;;;;18.95;9.77;;;;;13.90;101346.00;;;;5107578;28;20032;-76
2021/07/07 02:45:28;;;;;;;10.68;9.57;;;;;13.90;101343.00;;;;5107320;28;20642;-75
2021/07/07 02:47:55;;;;;;;12.02;9.73;;;;;13.80;101332.00;;;;5107423;28;20036;-75
2021/07/07 02:50:22;;;;;;;11.00;9.73;;;;;13.80;101321.00;;;;5106970;28;20031;-75
2021/07/07 02:52:52;;;;;;;11.95;9.68;;;;;13.80;101320.00;;;;5107739;28;20063;-75
2021/07/07 02:55:20;;;;;;;10.63;9.52;;;;;13.70;101334.00;;;;5108387;28;20034;-75
2021/07/07 02:57:59;;;;;;;10.40;9.40;;;;;13.70;101323.00;;;;5107871;28;20023;-75
2021/07/07 03:00:40;;;;;;;12.88;8.90;;;;;13.70;101332.00;;;;5107269;28;20035;-74
2021/07/07 03:03:14;;;;;;;12.10;8.82;;;;;14.00;101317.00;;;;5106755;28;20418;-75
2021/07/07 03:05:44;;;;;;;11.98;9.57;;;;;14.10;101301.00;;;;5107709;28;20038;-75
2021/07/07 03:08:12;;;;;;;13.43;8.90;;;;;14.10;101333.00;;;;5107302;28;20038;-75
2021/07/07 03:10:39;;;;;;;13.10;8.63;;;;;14.30;101311.00;;;;5106836;28;20390;-75
2021/07/07 03:13:06;;;;;;;10.20;9.15;;;;;14.20;101302.00;;;;5106365;28;20110;-75
2021/07/07 03:15:36;;;;;;;16.40;9.23;;;;;14.10;101311.00;;;;5107164;28;20482;-75
2021/07/07 03:18:03;;;;;;;12.18;8.32;;;;;14.20;101315.00;;;;5107239;28;20406;-75
2021/07/07 03:20:31;;;;;;;10.77;9.20;;;;;14.40;101324.00;;;;5107421;28;20072;-75
2021/07/07 03:22:58;;;;;;;13.82;8.30;;;;;14.40;101306.00;;;;5107196;28;20035;-75
2021/07/07 03:25:24;;;;;;;8.80;7.82;;;;;14.30;101298.00;;;;5107030;28;20020;-75
2021/07/07 03:27:51;;;;;;;9.63;7.82;;;;;14.40;101323.00;;;;5107695;28;20031;-75
2021/07/07 03:30:18;;;;;;;8.50;7.53;;;;;14.60;101309.00;;;;5093005;28;20387;-75
2021/07/07 03:32:45;;;;;;;8.63;7.60;;;;;14.60;101310.00;;;;5110733;28;20106;-76
2021/07/07 03:35:13;;;;;;;13.15;8.50;;;;;14.60;101288.00;;;;5110872;28;20042;-76
2021/07/07 03:37:39;;;;;;;9.27;7.78;;;;;14.80;101299.00;;;;5110949;28;20019;-75
2021/07/07 03:40:07;;;;;;;10.82;7.53;;;;;14.80;101314.00;;;;5111108;28;20031;-75
2021/07/07 03:42:33;;;;;;;11.23;7.15;;;;;14.80;101301.00;;;;5110658;28;20039;-75
2021/07/07 03:45:00;;;;;;;10.13;7.03;;;;;14.90;101300.00;;;;5111441;28;20023;-75
2021/07/07 03:47:27;;;;;;;8.63;6.50;;;;;15.20;101324.00;;;;5110595;28;20019;-75
2021/07/07 03:49:53;;;;;;;7.78;6.53;;;;;15.10;101299.00;;;;5110644;28;20076;-75
2021/07/07 03:52:20;;;;;;;8.93;7.03;;;;;14.90;101306.00;;;;5110709;28;20494;-75
2021/07/07 03:54:46;;;;;;;8.60;7.80;;;;;14.70;101318.00;;;;5110327;28;20054;-75
2021/07/07 03:57:13;;;;;;;14.40;7.90;;;;;14.40;101302.00;;;;5110455;28;20032;-75
2021/07/07 03:59:40;;;;;;;9.95;8.38;;;;;14.10;101322.00;;;;5110689;28;20575;-75
2021/07/07 04:02:07;;;;;;;11.05;8.75;;;;;13.80;101324.00;;;;5110305;28;20043;-75
2021/07/07 04:04:36;;;;;;;10.60;8.45;;;;;13.60;101321.00;;;;5110747;28;20016;-76
2021/07/07 04:07:04;;;;;;;9.93;8.93;;;;;13.40;101331.00;;;;5110856;28;20047;-75
2021/07/07 04:09:31;;;;;;;11.75;8.93;;;;;13.30;101342.00;;;;5110043;28;20046;-75
2021/07/07 04:11:57;;;;;;;9.05;8.18;;;;;13.20;101331.00;;;;5110384;28;20032;-75
2021/07/07 04:14:26;;;;;;;9.27;8.38;;;;;13.10;101306.00;;;;5110166;28;20035;-75
2021/07/07 04:16:55;;;;;;;12.57;8.52;;;;;13.10;101342.00;;;;5110504;28;20023;-75
2021/07/07 04:19:23;;;;;;;11.95;8.65;;;;;13.10;101339.00;;;;5110399;28;20027;-74
2021/07/07 04:21:51;;;;;;;10.40;8.65;;;;;13.10;101332.00;;;;5109846;28;20114;-75
2021/07/07 04:24:19;;;;;;;10.27;8.43;;;;;13.10;101349.00;;;;5109757;28;20031;-75
2021/07/07 04:26:46;;;;;;;10.02;8.85;;;;;13.00;101347.00;;;;5109974;28;20115;-75
2021/07/07 04:29:13;;;;;;;10.45;9.13;;;;;13.00;101331.00;;;;5110176;28;20038;-75
2021/07/07 04:31:40;;;;;;;13.90;9.57;;;;;12.70;101359.00;;;;5109905;28;20107;-75
2021/07/07 04:34:06;;;;;;;9.82;8.93;;;;;12.50;101344.00;;;;5110060;28;20429;-75
2021/07/07 04:36:34;;;;;;;12.27;8.95;;;;;12.50;101355.00;;;;5110395;28;20028;-75
2021/07/07 04:39:02;;;;;;;11.73;9.15;;;;;12.40;101350.00;;;;5108980;28;20111;-75
2021/07/07 04:41:29;;;;;;;11.05;9.90;;;;;12.20;101366.00;;;;5109464;28;20494;-75
2021/07/07 04:43:56;;;;;;;12.93;11.18;;;;;12.10;101362.00;;;;5091566;28;20089;-75
2021/07/07 04:46:22;;;;;;;17.48;10.23;;;;;12.00;101357.00;;;;5109853;28;20107;-75
2021/07/07 04:48:49;;;;;;;14.07;11.30;;;;;11.90;101327.00;;;;5109729;28;20046;-75
2021/07/07 04:51:16;;;;;;;12.75;11.48;;;;;11.90;101352.00;;;;5109117;28;20054;-75
2021/07/07 04:53:42;;;;;;;14.95;11.65;;;;;11.80;101363.00;;;;5109470;28;20027;-75
2021/07/07 04:56:09;;;;;;;12.70;11.48;;;;;11.70;101338.00;;;;5109605;28;20479;-75
2021/07/07 04:58:42;;;;;;;12.65;11.45;;;;;11.60;101330.00;;;;5109534;28;20483;-75
2021/07/07 05:01:09;;;;;;;14.02;12.32;;;;;11.50;101319.00;;;;5109048;28;20423;-75
2021/07/07 05:03:36;;;;;;;13.25;11.93;;;;;11.50;101334.00;;;;5108825;28;20502;-75
2021/07/07 05:06:03;;;;;;;12.57;11.32;;;;;11.50;101332.00;;;;5109155;28;20096;-75
2021/07/07 05:08:29;;;;;;;13.75;12.45;;;;;11.50;101313.00;;;;5109793;28;20096;-75
2021/07/07 05:10:57;;;;;;;15.15;13.40;;;;;11.60;101337.00;;;;5109618;28;20387;-75
2021/07/07 05:13:24;;;;;;;14.63;13.30;;;;;11.60;101315.00;;;;5109017;28;20058;-75
2021/07/07 05:15:52;;;;;;;17.05;13.63;;;;;11.90;101347.00;;;;5108716;28;20028;-75
2021/07/07 05:18:20;;;;;;;15.23;12.38;;;;;12.10;101345.00;;;;5108921;28;20110;-75
2021/07/07 05:20:47;;;;;;;13.38;11.77;;;;;12.20;101323.00;;;;5108677;28;20088;-75
2021/07/07 05:23:15;;;;;;;15.55;12.13;;;;;12.20;101357.00;;;;5109380;28;20104;-75
2021/07/07 05:25:42;;;;;;;15.70;11.75;;;;;12.20;101365.00;;;;5109005;28;20570;-75
2021/07/07 05:28:11;;;;;;;13.52;11.30;;;;;12.20;101334.00;;;;5109001;28;20110;-75
2021/07/07 05:30:38;;;;;;;12.55;11.25;;;;;12.20;101334.00;;;;5108595;28;20024;-75
2021/07/07 05:33:07;;;;;;;12.60;11.27;;;;;12.40;101340.00;;;;5108473;28;20032;-75
2021/07/07 05:35:34;;;;;;;13.38;10.93;;;;;12.50;101358.00;;;;5108548;28;20032;-75
2021/07/07 05:38:01;;;;;;;18.50;10.65;;;;;12.50;101330.00;;;;5108116;28;20023;-74
2021/07/07 05:40:27;;;;;;;11.27;10.20;;;;;12.40;101343.00;;;;5109020;28;20065;-75
2021/07/07 05:42:54;;;;;;;11.15;10.07;;;;;12.50;101330.00;;;;5108381;28;20545;-75
2021/07/07 05:45:24;;;;;;;14.77;10.82;;;;;12.60;101345.00;;;;5108086;28;20498;-75
2021/07/07 05:47:51;;;;;;;11.23;10.00;;;;;12.80;101347.00;;;;5109041;28;20503;-75
2021/07/07 05:50:19;;;;;;;17.80;10.07;;;;;12.80;101321.00;;;;5108500;28;20398;-75
2021/07/07 05:52:46;;;;;;;11.23;9.60;;;;;12.70;101331.00;;;;5107940;28;20031;-75
2021/07/07 05:55:13;;;;;;;11.02;9.60;;;;;12.60;101338.00;;;;5108499;28;20035;-75
2021/07/07 05:57:40;;;;;;;10.00;9.00;;;;;12.50;101314.00;;;;5108270;28;20035;-75
2021/07/07 06:00:11;;;;;;;10.07;9.07;;;;;12.30;101339.00;;;;5108143;28;20024;-75
2021/07/07 06:02:39;;;;;;;9.88;8.90;;;;;12.00;101318.00;;;;5108292;28;20499;-75
2021/07/07 06:05:08;;;;;;;11.57;10.18;;;;;12.00;101331.00;;;;5107992;28;20032;-75
2021/07/07 06:07:36;;;;;;;10.23;8.73;;;;;11.80;101308.00;;;;5108231;28;20483;-76
2021/07/07 06:10:04;;;;;;;9.93;8.93;;;;;11.80;101306.00;;;;5107592;28;20035;-75
2021/07/07 06:12:32;;;;;;;11.98;10.10;;;;;11.90;101315.00;;;;5108630;28;20030;-75
2021/07/07 06:14:59;;;;;;;11.40;10.18;;;;;12.10;101296.00;;;;5108002;28;20040;-75
2021/07/07 06:17:25;;;;;;;10.75;9.32;;;;;12.10;101326.00;;;;5107625;28;20096;-75
2021/07/07 06:19:52;;;;;;;9.77;8.80;;;;;11.90;101321.00;;;;5107869;28;20043;-75
2021/07/07 06:22:19;;;;;;;10.38;9.45;;;;;11.90;101306.00;;;;5107801;28;20122;-75
2021/07/07 06:24:45;;;;;;;12.50;10.00;;;;;11.80;101328.00;;;;5107732;28;20398;-75
2021/07/07 06:27:12;;;;;;;13.10;8.98;;;;;11.80;101328.00;;;;5107219;28;20441;-75
2021/07/07 06:29:38;;;;;;;10.45;9.40;;;;;11.90;101325.00;;;;5089469;28;20487;-75
2021/07/07 06:32:05;;;;;;;10.32;9.35;;;;;12.20;101322.00;;;;5107855;28;20478;-75
2021/07/07 06:34:32;;;;;;;9.40;8.50;;;;;12.20;101322.00;;;;5108020;28;20081;-75
2021/07/07 06:36:58;;;;;;;12.02;9.60;;;;;12.00;101323.00;;;;5108075;28;20386;-75
2021/07/07 06:39:25;;;;;;;9.95;8.85;;;;;12.00;101323.00;;;;5107638;28;20023;-76
2021/07/07 06:41:52;;;;;;;11.02;8.35;;;;;11.90;101333.00;;;;5108050;28;20038;-75
2021/07/07 06:44:18;;;;;;;9.70;8.60;;;;;12.00;101292.00;;;;5107770;28;20555;-75
2021/07/07 06:46:45;;;;;;;9.82;8.90;;;;;11.90;101315.00;;;;5107243;28;20038;-75
2021/07/07 06:49:11;;;;;;;9.57;8.65;;;;;11.60;101295.00;;;;5107688;28;20116;-75
2021/07/07 06:51:38;;;;;;;9.88;8.88;;;;;11.50;101294.00;;;;5107000;28;20031;-75
2021/07/07 06:54:05;;;;;;;9.90;8.90;;;;;11.40;101307.00;;;;5107171;28;20020;-75
2021/07/07 06:56:32;;;;;;;10.32;8.80;;;;;11.30;101306.00;;;;5107782;28;20047;-75
2021/07/07 06:58:58;;;;;;;10.85;9.68;;;;;11.10;101304.00;;;;5107545;28;20107;-75
2021/07/07 07:01:25;;;;;;;10.15;8.98;;;;;11.10;101307.00;;;;5107676;28;20522;-75
2021/07/07 07:03:51;;;;;;;11.68;9.65;;;;;11.00;101291.00;;;;5106759;28;20452;-76
2021/07/07 07:06:18;;;;;;;11.65;9.43;;;;;11.00;101317.00;;;;5106857;28;20433;-75
2021/07/07 07:08:44;;;;;;;12.65;9.93;;;;;11.00;101311.00;;;;5107392;28;20154;-75
2021/07/07 07:11:17;;;;;;;13.95;10.75;;;;;11.00;101309.00;;;;5089090;28;20136;-75
2021/07/07 07:13:45;;;;;;;13.13;11.77;;;;;11.00;101288.00;;;;5107495;28;20080;-75
2021/07/07 07:16:13;;;;;;;13.85;11.13;;;;;11.10;101313.00;;;;5107248;28;20031;-75
2021/07/07 07:18:40;;;;;;;11.70;10.50;;;;;11.20;101321.00;;;;5106745;28;20023;-75
2021/07/07 07:21:07;;;;;;;11.68;10.48;;;;;11.20;101321.00;;;;5106898;28;20038;-75
2021/07/07 07:23:34;;;;;;;12.48;10.60;;;;;11.20;101317.00;;;;5107692;28;20035;-75
2021/07/07 07:26:01;;;;;;;10.88;9.88;;;;;11.20;101305.00;;;;5107557;28;20499;-75
2021/07/07 07:28:28;;;;;;;14.65;10.00;;;;;11.30;101271.00;;;;5107052;28;20036;-75
2021/07/07 07:30:59;;;;;;;11.40;9.38;;;;;11.50;101289.00;;;;5106994;28;20035;-75
2021/07/07 07:33:26;;;;;;;12.05;10.00;;;;;11.70;101288.00;;;;5107038;28;20431;-75
2021/07/07 07:35:53;;;;;;;9.32;8.30;;;;;11.80;101301.00;;;;5121368;28;20027;-76
2021/07/07 07:38:31;;;;;;;9.10;8.10;;;;;11.80;101313.00;;;;5128367;28;20020;-75
2021/07/07 07:40:58;;;;;;;10.23;8.85;;;;;11.60;101305.00;;;;5118368;28;20032;-75
2021/07/07 07:43:25;;;;;;;11.15;8.45;;;;;11.70;101298.00;;;;5107245;28;20024;-74
2021/07/07 07:45:55;;;;;;;12.13;8.27;;;;;11.90;101301.00;;;;5107342;28;20039;-75
2021/07/07 07:48:23;;;;;;;9.10;8.13;;;;;11.80;101298.00;;;;5106896;28;20036;-75
2021/07/07 07:50:50;;;;;;;8.95;8.07;;;;;11.80;101296.00;;;;5107189;28;20024;-74
2021/07/07 07:53:17;;;;;;;12.05;8.48;;;;;11.70;101302.00;;;;5106780;28;20032;-75
2021/07/07 07:55:44;;;;;;;8.45;7.57;;;;;11.70;101304.00;;;;5106745;28;20088;-75
2021/07/07 07:58:17;;;;;;;9.60;8.27;;;;;11.60;101297.00;;;;5106929;28;20035;-75
2021/07/07 08:00:44;;;;;;;10.32;8.25;;;;;11.60;101297.00;;;;5106268;28;20449;-75
2021/07/07 08:03:11;;;;;;;8.50;7.70;;;;;11.40;101302.00;;;;5106533;28;20042;-75
2021/07/07 08:05:39;;;;;;;8.45;7.55;;;;;11.30;101286.00;;;;5106846;28;20459;-75
2021/07/07 08:08:06;;;;;;;11.02;8.88;;;;;11.10;101287.00;;;;5106878;28;20024;-75
2021/07/07 08:10:33;;;;;;;10.70;8.05;;;;;11.00;101299.00;;;;5106564;28;20028;-75
2021/07/07 08:13:00;;;;;;;13.02;8.30;;;;;11.10;101276.00;;;;5106783;28;20038;-75
2021/07/07 08:15:28;;;;;;;13.57;9.32;;;;;10.90;101297.00;;;;5109975;28;20023;-74
2021/07/07 08:17:56;;;;;;;10.40;9.40;;;;;10.90;101295.00;;;;5110551;28;20053;-75
2021/07/07 08:20:24;;;;;;;9.52;8.63;;;;;10.80;101305.00;;;;5110287;28;20032;-75
2021/07/07 08:22:52;;;;;;;11.38;8.57;;;;;11.00;101299.00;;;;5110298;28;20031;-75
2021/07/07 08:25:20;;;;;;;9.63;8.52;;;;;10.90;101299.00;;;;5110271;28;20059;-75
2021/07/07 08:27:48;;;;;;;16.40;9.60;;;;;10.90;101305.00;;;;5109936;28;20031;-75
2021/07/07 08:30:15;;;;;;;10.80;8.60;;;;;10.80;101292.00;;;;5110371;28;20032;-75
2021/07/07 08:32:42;;;;;;;9.57;8.68;;;;;10.70;101290.00;;;;5109551;28;20059;-75
2021/07/07 08:35:09;;;;;;;10.88;9.45;;;;;10.60;101259.00;;;;5110013;28;20015;-75
2021/07/07 08:37:36;;;;;;;12.73;9.60;;;;;10.60;101291.00;;;;5110167;28;20475;-75
2021/07/07 08:40:07;;;;;;;10.25;9.15;;;;;10.50;101303.00;;;;5110239;28;20031;-75
2021/07/07 08:42:36;;;;;;;10.98;9.15;;;;;10.40;101268.00;;;;5109516;28;20028;-75
2021/07/07 08:45:08;;;;;;;11.93;10.73;;;;;10.50;101306.00;;;;5091863;28;20036;-75
2021/07/07 08:47:38;;;;;;;11.30;9.50;;;;;10.40;101297.00;;;;5109608;28;20032;-75
2021/07/07 08:50:11;;;;;;;13.60;10.95;;;;;10.40;101303.00;;;;5109788;28;20088;-75
2021/07/07 08:52:39;;;;;;;11.13;10.00;;;;;10.40;101267.00;;;;5109514;28;20020;-75
2021/07/07 08:55:11;;;;;;;11.25;9.95;;;;;10.30;101297.00;;;;5109149;28;20054;-75
2021/07/07 08:57:44;;;;;;;;;;;;;10.20;101291.00;;;;5110587;28;20105;-75
2021/07/07 09:00:37;;;;;;;13.52;10.63;;;;;10.20;101263.00;;;;5109621;28;19911;-75
2021/07/07 09:03:21;;;;;;;10.75;9.68;;;;;10.10;101265.00;;;;5109347;28;20521;-75
2021/07/07 09:05:49;;;;;;;14.30;9.82;;;;;10.10;101267.00;;;;5109647;28;20479;-75
2021/07/07 09:08:31;;;;;;;11.40;10.15;;;;;10.10;101262.00;;;;5109189;28;20122;-75
2021/07/07 09:11:28;;;;;;;21.05;10.57;;;;;9.90;101282.00;;;;5109063;28;20035;-77
2021/07/07 09:14:15;;;;;;;12.13;9.90;;;;;9.90;101284.00;;;;5109287;28;20059;-76
2021/07/07 09:16:50;;;;;;;14.80;10.38;;;;;9.90;101296.00;;;;5109436;28;20049;-76
2021/07/07 09:19:26;;;;;;;13.65;11.18;;;;;10.00;101261.00;;;;5109299;28;20062;-76
2021/07/07 09:21:56;;;;;;;14.48;11.38;;;;;10.00;101270.00;;;;5108813;28;20020;-77
2021/07/07 09:24:24;;;;;;;13.52;11.73;;;;;10.10;101275.00;;;;5109177;28;20032;-77
2021/07/07 09:27:02;;;;;;;15.82;11.75;;;;;10.00;101293.00;;;;5108962;28;20491;-75
2021/07/07 09:29:36;;;;;;;15.65;12.43;;;;;10.00;101285.00;;;;5109429;28;20490;-75
2021/07/07 09:32:28;;;;;;;15.93;12.80;;;;;10.00;101294.00;;;;5108555;28;20039;-76
2021/07/07 09:35:02;;;;;;;;;;;;;10.00;101284.00;;;;5097697;28;20406;-74
2021/07/07 09:37:43;;;;;;;14.95;10.48;;;;;9.90;101293.00;;;;5108653;28;20045;-75
2021/07/07 09:40:12;;;;;;;12.13;10.85;;;;;9.80;101294.00;;;;5109162;28;20110;-75
2021/07/07 09:42:41;;;;;;;19.55;13.20;;;;;9.80;101315.00;;;;5108358;28;20043;-75
2021/07/07 09:45:10;;;;;;;16.58;11.77;;;;;9.80;101294.00;;;;5109003;28;20067;-75
2021/07/07 09:47:39;;;;;;;15.88;11.30;;;;;9.80;101297.00;;;;5106915;28;20495;-76
2021/07/07 09:50:07;;;;;;;17.95;11.43;;;;;9.80;101312.00;;;;5107438;28;20035;-76
2021/07/07 09:52:34;;;;;;;11.85;10.57;;;;;9.80;101303.00;;;;5105502;28;20102;-76
2021/07/07 09:55:02;;;;;;;16.65;12.50;;;;;9.80;101316.00;;;;5107994;28;20036;-76
2021/07/07 09:57:28;;;;;;;14.07;12.25;;;;;9.80;101308.00;;;;5108306;28;20557;-76
2021/07/07 09:59:55;;;;;;;18.50;11.73;;;;;9.80;101337.00;;;;5108249;28;20039;-76
2021/07/07 10:02:22;;;;;;;18.50;11.98;;;;;9.90;101352.00;;;;5108162;28;20615;-76
2021/07/07 10:04:52;;;;;;;13.05;10.85;;;;;9.90;101335.00;;;;5107718;28;20462;-74
2021/07/07 10:07:20;;;;;;;11.80;10.60;;;;;9.80;101348.00;;;;5107291;28;20074;-74
2021/07/07 10:09:47;;;;;;;15.07;11.23;;;;;9.80;101334.00;;;;5107739;28;20383;-75
2021/07/07 10:12:14;;;;;;;13.00;10.77;;;;;9.80;101344.00;;;;5108445;28;20031;-75
2021/07/07 10:14:43;;;;;;;14.13;11.25;;;;;9.80;101360.00;;;;5107823;28;20058;-75
2021/07/07 10:17:10;;;;;;;11.98;10.57;;;;;9.80;101347.00;;;;5089666;28;20410;-75
2021/07/07 10:19:38;;;;;;;13.45;10.95;;;;;9.80;101349.00;;;;5108199;28;20028;-74
2021/07/07 10:22:05;;;;;;;14.05;10.57;;;;;9.90;101346.00;;;;5107438;28;20036;-75
2021/07/07 10:24:34;;;;;;;12.25;10.85;;;;;9.90;101338.00;;;;5107599;28;20035;-75
2021/07/07 10:27:03;;;;;;;20.63;11.70;;;;;9.90;101347.00;;;;5089244;28;20059;-76
2021/07/07 10:29:31;;;;;;;14.25;11.00;;;;;9.80;101356.00;;;;5107474;28;20364;-78
2021/07/07 10:32:00;;;;;;;11.95;10.38;;;;;9.90;101368.00;;;;5108149;28;20089;-76
2021/07/07 10:34:29;;;;;;;12.32;11.02;;;;;10.00;101360.00;;;;5107643;28;20084;-75
2021/07/07 10:37:00;;;;;;;13.65;10.48;;;;;10.00;101364.00;;;;5106729;28;20034;-74
2021/07/07 10:39:29;;;;;;;11.25;9.68;;;;;10.00;101346.00;;;;5107511;28;20728;-75
2021/07/07 10:42:04;;;;;;;11.07;9.70;;;;;10.00;101343.00;;;;5107659;28;20035;-75
2021/07/07 10:44:39;;;;;;;11.68;9.20;;;;;10.10;101364.00;;;;5107483;28;20016;-76
2021/07/07 10:47:13;;;;;;;13.85;9.60;;;;;10.10;101373.00;;;;5106961;28;20035;-75
2021/07/07 10:49:45;;;;;;;12.68;9.77;;;;;10.20;101373.00;;;;5107622;28;20027;-75
2021/07/07 10:52:34;;;;;;;13.07;9.63;;;;;10.30;101355.00;;;;5106757;28;20134;-75
2021/07/07 10:55:03;;;;;;;11.35;9.00;;;;;10.50;101334.00;;;;5106906;28;20437;-75
2021/07/07 10:57:35;;;;;;;17.92;9.13;;;;;11.10;101318.00;;;;5107407;28;20027;-76
2021/07/07 11:00:25;;;;;;;16.27;7.35;;;;;12.20;101286.00;;;;5106660;28;20039;-75
2021/07/07 11:03:42;;;;;;;10.25;8.02;;;;;13.60;101300.00;;;;5107380;28;20078;-74
2021/07/07 11:06:23;;;;;;;9.65;6.50;;;;;13.50;101285.00;;;;5090065;28;20047;-78
2021/07/07 11:08:52;;;;;;;24.02;12.18;;;;;13.10;101319.00;;;;5108236;28;20027;-78
2021/07/07 11:11:27;;;;;;;7.22;6.53;;;;;13.60;101282.00;;;;5106916;28;20034;-75
2021/07/07 11:13:55;;;;;;;18.05;8.10;;;;;14.50;101283.00;;;;5106876;28;20072;-75
2021/07/07 11:16:23;;;;;;;9.25;6.20;;;;;15.70;101257.00;;;;5107163;28;20044;-75
2021/07/07 11:18:53;;;;;;;20.85;10.05;;;;;15.40;101283.00;;;;5106922;28;20387;-75
2021/07/07 11:21:20;;;;;;;22.13;8.80;;;;;14.50;101335.00;;;;5107104;28;20159;-75
2021/07/07 11:23:47;;;;;;;9.57;6.45;;;;;15.20;101306.00;;;;5107472;28;20035;-76
2021/07/07 11:26:14;;;;;;;12.90;7.47;;;;;16.80;101234.00;;;;5106863;28;20119;-76
2021/07/07 11:28:44;;;;;;;9.63;6.65;;;;;17.20;101265.00;;;;5107164;28;20028;-75
2021/07/07 11:31:11;;;;;;;12.00;7.03;;;;;17.80;101265.00;;;;5106748;28;20118;-75
2021/07/07 11:33:37;;;;;;;7.72;6.32;;;;;17.90;101242.00;;;;5107341;28;20921;-74
2021/07/07 11:36:04;;;;;;;21.92;10.15;;;;;19.70;101183.00;;;;5106790;28;20074;-76
2021/07/07 11:38:31;;;;;;;12.30;7.05;;;;;20.50;101157.00;;;;5106499;28;20410;-75
2021/07/07 11:40:58;;;;;;;8.27;6.15;;;;;20.90;101142.00;;;;5107218;28;20023;-76
2021/07/07 11:43:28;;;;;;;7.88;7.15;;;;;21.20;101153.00;;;;5106591;28;20062;-75
2021/07/07 11:46:03;;;;;;;14.52;7.68;;;;;21.80;101164.00;;;;5106870;28;20114;-76
2021/07/07 11:48:38;;;;;;;10.15;6.68;;;;;21.90;101168.00;;;;5107528;28;20039;-75
2021/07/07 11:51:17;;;;;;;10.13;5.97;;;;;21.90;101153.00;;;;5110981;28;20754;-76
2021/07/07 11:53:46;;;;;;;8.25;5.63;;;;;22.40;101146.00;;;;5110720;28;20031;-76
2021/07/07 11:56:15;;;;;;;13.73;7.30;;;;;22.50;101165.00;;;;5110661;28;20034;-75
2021/07/07 11:58:56;;;;;;;15.40;5.93;;;;;23.50;101185.00;;;;5111152;28;20410;-76
2021/07/07 12:01:26;;;;;;;11.80;4.45;;;;;23.80;101200.00;;;;5110499;28;20398;-76
2021/07/07 12:03:58;;;;;;;25.47;7.23;;;;;23.60;101205.00;;;;5110855;28;20035;-76
2021/07/07 12:06:38;;;;;;;12.60;5.50;;;;;24.40;101206.00;;;;5109805;28;20034;-76